Melville Hall, Dominica

1:37 PM AST on July 28, 2016 (GMT -0400)
Melville Hall | | Change Station

Elev 46 ft 15.55 °N, 61.30 °W | Updated 37 minutes ago

Scattered Clouds
Scattered Clouds
88 °F
Feels Like 100 °F
N
9
Wind Variable Wind from East

Today
High -- | Low -- °F
--% Chance of Precip.
Yesterday
High -- | Low -- °F
Precip. -- in
Pressure 30.01 in
Visibility 6.2 miles
Clouds Scattered Clouds 1900 ft
Heat Index 100 °F
Dew Point 77 °F
Humidity 70%
Rainfall 0.00 in
Snow Depth Not available.
5:46 AM 6:37 PM
Waning Crescent, 30% visible
METAR TDPD 281700Z 10008KT 9999 SCT019 31/25 Q1016
Pressure 30.01 in
Visibility 6.2 miles
Clouds Scattered Clouds 1900 ft
Heat Index 100 °F
Dew Point 77 °F
Humidity 70%
Rainfall 0.00 in
Snow Depth Not available.
5:46 AM 6:37 PM
Waning Crescent, 30% visible
METAR TDPD 281700Z 10008KT 9999 SCT019 31/25 Q1016

10-Day Weather Forecast

No radar image for this location.
×

Almanac

Astronomy

Jul. 28, 2016 Rise Set
Actual Time
Civil Twilight
Nautical Twilight
Astronomical Twilight
Moon
Length of Visible Light
Length of Day
Tomorrow will be .
, % of the Moon is Illuminated

Today's Extremes

Country Highs Country Lows

Community

WunderPhotos

Upload Photos

1,928,163 photos uploaded!

WunderBlog® & News

Nearby

Air Quality

  Air Quality AQ Index Pollutant
Not available.

Snow Depth

Station Depth Elevation

Earthquake Activity

City Distance Mag. Time & Date
Minimum magnitude displayed is 2.5.

Coastal Water Temperatures

Place Temperature

Stations

Nearby Weather Stations

Station Location Temp. Windchill Dew Point Humidity Wind Precip. Elev Updated Type